Time;durP1;ratioP1;P1;durP2;ratioP2;P2;SDS_P1;SDS_P2;PMS_P1;PMS_P2;Temp;Humidity;BMP_temperature;BMP_pressure;BME280_temperature;BME280_humidity;BME280_pressure;Samples;Min_cycle;Max_cycle;Signal;HPM_P1;HPM_P2
2022/12/28 00:00:52;;;;;;;1.07;0.70;;;;;;;;;;5066298;28;20032;-64
2022/12/28 00:03:19;;;;;;;1.73;0.67;;;;;;;;;;5066876;28;20059;-63
2022/12/28 00:05:46;;;;;;;0.50;0.50;;;;;;;;;;5066524;28;20043;-63
2022/12/28 00:08:12;;;;;;;1.30;0.90;;;;;;;;;;5068834;28;20044;-64
2022/12/28 00:10:39;;;;;;;1.60;0.80;;;;;;;;;;5075351;28;20482;-64
2022/12/28 00:13:06;;;;;;;0.67;0.60;;;;;;;;;;5076070;28;20025;-63
2022/12/28 00:15:32;;;;;;;6.43;1.67;;;;;;;;;;5076050;28;20528;-63
2022/12/28 00:17:59;;;;;;;6.70;1.60;;;;;;;;;;5075401;28;20441;-63
2022/12/28 00:20:26;;;;;;;1.70;0.73;;;;;;;;;;5076006;28;20089;-63
2022/12/28 00:22:52;;;;;;;1.80;0.87;;;;;;;;;;5071043;28;20052;-63
2022/12/28 00:25:19;;;;;;;1.60;0.97;;;;;;;;;;5070837;28;20027;-63
2022/12/28 00:27:46;;;;;;;5.50;1.10;;;;;;;;;;5070432;28;20507;-63
2022/12/28 00:30:13;;;;;;;2.20;1.67;;;;;;;;;;5070390;28;20040;-62
2022/12/28 00:32:39;;;;;;;4.27;1.70;;;;;;;;;;5074386;28;20040;-63
2022/12/28 00:35:06;;;;;;;0.83;0.70;;;;;;;;;;5075088;28;20021;-63
2022/12/28 00:37:33;;;;;;;1.70;1.20;;;;;;;;;;5075613;28;20517;-63
2022/12/28 00:40:00;;;;;;;2.93;1.73;;;;;;;;;;5075309;28;20032;-63
2022/12/28 00:42:26;;;;;;;1.70;1.10;;;;;;;;;;5075500;28;20050;-62
2022/12/28 00:44:53;;;;;;;6.63;1.33;;;;;;;;;;5071041;28;20158;-63
2022/12/28 00:47:19;;;;;;;2.03;1.10;;;;;;;;;;5070170;28;20028;-63
2022/12/28 00:49:46;;;;;;;2.67;1.70;;;;;;;;;;5069729;28;20028;-65
2022/12/28 00:52:13;;;;;;;2.87;1.73;;;;;;;;;;5069718;28;20537;-63
2022/12/28 00:54:39;;;;;;;2.10;1.27;;;;;;;;;;5073521;28;20680;-63
2022/12/28 00:57:06;;;;;;;3.13;2.07;;;;;;;;;;5075306;28;20111;-63
2022/12/28 00:59:33;;;;;;;2.20;1.37;;;;;;;;;;5075347;28;20028;-63
2022/12/28 01:02:00;;;;;;;3.43;1.83;;;;;;;;;;5074998;28;20020;-63
2022/12/28 01:04:26;;;;;;;1.43;0.90;;;;;;;;;;5075480;28;20430;-64
2022/12/28 01:06:53;;;;;;;3.33;1.83;;;;;;;;;;5070739;28;20111;-65
2022/12/28 01:09:20;;;;;;;2.83;1.50;;;;;;;;;;5069631;28;20501;-63
2022/12/28 01:11:46;;;;;;;1.83;1.30;;;;;;;;;;5069827;28;20474;-63
2022/12/28 01:14:13;;;;;;;6.47;2.13;;;;;;;;;;5069568;28;20078;-64
2022/12/28 01:16:40;;;;;;;1.73;1.33;;;;;;;;;;5072433;28;20078;-63
2022/12/28 01:19:07;;;;;;;3.43;1.53;;;;;;;;;;5074703;28;20059;-63
2022/12/28 01:21:35;;;;;;;8.30;1.97;;;;;;;;;;5074722;28;20078;-63
2022/12/28 01:24:03;;;;;;;2.93;1.40;;;;;;;;;;5074233;28;20028;-63
2022/12/28 01:26:30;;;;;;;6.70;1.90;;;;;;;;;;5074505;28;20033;-63
2022/12/28 01:28:58;;;;;;;2.80;0.90;;;;;;;;;;5071673;28;20447;-64
2022/12/28 01:31:24;;;;;;;5.33;1.93;;;;;;;;;;5069155;28;20031;-65
2022/12/28 01:33:52;;;;;;;2.93;1.93;;;;;;;;;;5069362;28;20645;-62
2022/12/28 01:36:24;;;;;;;2.70;1.60;;;;;;;;;;5068933;28;20028;-62
2022/12/28 01:38:55;;;;;;;2.60;1.70;;;;;;;;;;5071345;28;20042;-65
2022/12/28 01:41:22;;;;;;;2.33;1.80;;;;;;;;;;5074436;28;20067;-64
2022/12/28 01:43:51;;;;;;;5.00;1.50;;;;;;;;;;5074561;28;20020;-65
2022/12/28 01:46:18;;;;;;;3.30;1.80;;;;;;;;;;5074388;28;20021;-62
2022/12/28 01:48:47;;;;;;;12.33;1.97;;;;;;;;;;5074217;28;20483;-63
2022/12/28 01:51:14;;;;;;;22.67;2.70;;;;;;;;;;5071115;28;20032;-66
2022/12/28 01:53:41;;;;;;;2.20;1.50;;;;;;;;;;5068479;28;20040;-64
2022/12/28 01:56:08;;;;;;;2.20;1.27;;;;;;;;;;5068957;28;20538;-64
2022/12/28 01:58:35;;;;;;;3.17;1.43;;;;;;;;;;5069006;28;20082;-62
2022/12/28 02:01:02;;;;;;;4.97;2.23;;;;;;;;;;5071114;28;20024;-63
2022/12/28 02:03:31;;;;;;;2.37;1.50;;;;;;;;;;5074241;28;20021;-64
2022/12/28 02:06:00;;;;;;;2.70;1.43;;;;;;;;;;5073578;28;20024;-63
2022/12/28 02:08:29;;;;;;;3.20;1.83;;;;;;;;;;5073733;28;20044;-62
2022/12/28 02:10:57;;;;;;;2.60;1.57;;;;;;;;;;5074041;28;20438;-63
2022/12/28 02:13:24;;;;;;;2.63;1.77;;;;;;;;;;5070654;28;20509;-63
2022/12/28 02:15:51;;;;;;;2.03;1.80;;;;;;;;;;5068437;28;20064;-64
2022/12/28 02:18:19;;;;;;;3.67;2.07;;;;;;;;;;5068327;28;20102;-65
2022/12/28 02:21:02;;;;;;;4.63;2.40;;;;;;;;;;5068327;28;20100;-65
2022/12/28 02:23:35;;;;;;;4.30;2.90;;;;;;;;;;5070945;28;20036;-62
2022/12/28 02:26:01;;;;;;;10.57;2.73;;;;;;;;;;5073655;28;20032;-63
2022/12/28 02:28:46;;;;;;;3.07;2.13;;;;;;;;;;5073521;28;20017;-63
2022/12/28 02:31:17;;;;;;;2.15;1.33;;;;;;;;;;5072592;28;20027;-62
2022/12/28 02:34:10;;;;;;;8.17;3.60;;;;;;;;;;5073420;28;20036;-63
2022/12/28 02:36:42;;;;;;;4.27;2.10;;;;;;;;;;5066820;28;20036;-62
2022/12/28 02:39:12;;;;;;;15.40;3.03;;;;;;;;;;5067643;28;20131;-62
2022/12/28 02:41:40;;;;;;;5.50;2.53;;;;;;;;;;5067955;28;20129;-62
2022/12/28 02:44:07;;;;;;;4.53;2.73;;;;;;;;;;5067919;28;20070;-62
2022/12/28 02:52:22;;;;;;;8.03;3.67;;;;;;;;;;5073088;28;20087;-62
2022/12/28 02:58:05;;;;;;;9.07;3.90;;;;;;;;;;5070720;28;20051;-62
2022/12/28 03:00:38;;;;;;;7.90;3.70;;;;;;;;;;5067652;28;20027;-62
2022/12/28 03:03:21;;;;;;;4.00;2.83;;;;;;;;;;5067112;28;20024;-62
2022/12/28 03:09:10;;;;;;;3.67;2.33;;;;;;;;;;5071893;28;20044;-62
2022/12/28 03:11:42;;;;;;;5.88;3.20;;;;;;;;;;5072636;28;20052;-62
2022/12/28 03:14:14;;;;;;;5.43;3.30;;;;;;;;;;5072636;28;20016;-62
2022/12/28 03:33:24;;;;;;;2.13;1.40;;;;;;;;;;5072426;28;20470;-63
2022/12/28 03:36:09;;;;;;;3.33;2.43;;;;;;;;;;5072102;28;20025;-62
2022/12/28 03:38:47;;;;;;;3.58;1.98;;;;;;;;;;5072350;28;20630;-64
2022/12/28 03:41:16;;;;;;;1.57;1.40;;;;;;;;;;5072139;28;20032;-62
2022/12/28 03:43:46;;;;;;;3.00;1.90;;;;;;;;;;5066304;28;20036;-62
2022/12/28 03:46:35;;;;;;;2.13;1.60;;;;;;;;;;5067256;28;20025;-62
2022/12/28 03:49:02;;;;;;;3.10;1.90;;;;;;;;;;5067151;28;20024;-62
2022/12/28 03:51:30;;;;;;;6.87;1.83;;;;;;;;;;5067702;28;20091;-62
2022/12/28 03:53:56;;;;;;;1.77;1.53;;;;;;;;;;5072240;28;20024;-62
2022/12/28 03:56:25;;;;;;;0.80;0.70;;;;;;;;;;5072154;28;20052;-62
2022/12/28 03:58:52;;;;;;;3.30;2.30;;;;;;;;;;5071859;28;20025;-63
2022/12/28 04:01:19;;;;;;;1.73;1.40;;;;;;;;;;5072098;28;20483;-62
2022/12/28 04:03:45;;;;;;;2.67;1.73;;;;;;;;;;5071029;28;20046;-62
2022/12/28 04:06:15;;;;;;;2.40;1.73;;;;;;;;;;5066668;28;20070;-63
2022/12/28 04:08:42;;;;;;;3.10;1.23;;;;;;;;;;5066835;28;20085;-63
2022/12/28 04:11:09;;;;;;;2.93;2.13;;;;;;;;;;5066837;28;20322;-63
2022/12/28 04:13:36;;;;;;;10.77;1.90;;;;;;;;;;5066579;28;20172;-63
2022/12/28 04:16:04;;;;;;;2.03;1.37;;;;;;;;;;5072138;28;20078;-62
2022/12/28 04:18:32;;;;;;;1.37;1.00;;;;;;;;;;5071962;28;20510;-63
2022/12/28 04:20:59;;;;;;;1.47;1.27;;;;;;;;;;5071981;28;20024;-62
2022/12/28 04:23:25;;;;;;;1.73;1.20;;;;;;;;;;5071297;28;20035;-62
2022/12/28 04:25:59;;;;;;;5.07;1.30;;;;;;;;;;5069939;28;20030;-62
2022/12/28 04:28:26;;;;;;;2.67;1.47;;;;;;;;;;5066343;28;20070;-62
2022/12/28 04:30:53;;;;;;;1.90;1.30;;;;;;;;;;5066764;28;20025;-62
2022/12/28 04:33:20;;;;;;;7.63;1.90;;;;;;;;;;5066634;28;20095;-63
2022/12/28 04:35:47;;;;;;;1.50;1.27;;;;;;;;;;5066627;28;20032;-62
2022/12/28 04:38:13;;;;;;;2.07;1.40;;;;;;;;;;5071849;28;20035;-63
2022/12/28 04:40:40;;;;;;;1.47;1.07;;;;;;;;;;5071710;28;20013;-62
2022/12/28 04:43:07;;;;;;;2.40;1.17;;;;;;;;;;5071438;28;20379;-64
2022/12/28 04:45:33;;;;;;;2.07;1.47;;;;;;;;;;5071802;28;20024;-62
2022/12/28 04:48:00;;;;;;;2.27;1.17;;;;;;;;;;5071277;28;20497;-62
2022/12/28 04:50:27;;;;;;;1.40;1.17;;;;;;;;;;5066831;28;20028;-62
2022/12/28 04:52:54;;;;;;;2.47;1.77;;;;;;;;;;5065862;28;20528;-62
2022/12/28 04:55:21;;;;;;;2.13;1.63;;;;;;;;;;5069822;28;20028;-62
2022/12/28 04:57:48;;;;;;;1.77;1.30;;;;;;;;;;5070678;28;20055;-62
2022/12/28 05:00:15;;;;;;;15.43;1.47;;;;;;;;;;5073919;28;20040;-62
2022/12/28 05:02:41;;;;;;;2.17;1.33;;;;;;;;;;5075072;28;20047;-62
2022/12/28 05:05:08;;;;;;;6.50;1.80;;;;;;;;;;5074510;28;20025;-63
2022/12/28 05:07:35;;;;;;;20.87;1.60;;;;;;;;;;5075047;28;20091;-62
2022/12/28 05:10:01;;;;;;;2.57;1.23;;;;;;;;;;5074858;28;20497;-62
2022/12/28 05:12:28;;;;;;;1.10;0.77;;;;;;;;;;5070077;28;20637;-63
2022/12/28 05:14:55;;;;;;;3.47;1.87;;;;;;;;;;5070032;28;20039;-62
2022/12/28 05:17:21;;;;;;;2.27;1.70;;;;;;;;;;5069718;28;20291;-62
2022/12/28 05:19:48;;;;;;;4.17;2.10;;;;;;;;;;5070166;28;20145;-62
2022/12/28 05:22:15;;;;;;;1.90;1.57;;;;;;;;;;5074491;28;20024;-62
2022/12/28 05:24:42;;;;;;;3.60;2.07;;;;;;;;;;5074985;28;20253;-63
2022/12/28 05:27:09;;;;;;;4.73;3.00;;;;;;;;;;5074714;28;20293;-62
2022/12/28 05:29:36;;;;;;;3.33;2.13;;;;;;;;;;5074724;28;20020;-62
2022/12/28 05:32:02;;;;;;;4.83;2.27;;;;;;;;;;5074524;28;20862;-64
2022/12/28 05:34:29;;;;;;;1.93;1.53;;;;;;;;;;5069813;28;20293;-62
2022/12/28 05:36:56;;;;;;;3.40;2.27;;;;;;;;;;5069552;28;20265;-62
2022/12/28 05:39:23;;;;;;;5.70;2.73;;;;;;;;;;5069407;28;20285;-62
2022/12/28 05:41:50;;;;;;;8.77;3.50;;;;;;;;;;5069702;28;20258;-62
2022/12/28 05:44:16;;;;;;;8.20;3.97;;;;;;;;;;5073503;28;20341;-62
2022/12/28 05:46:43;;;;;;;3.30;2.23;;;;;;;;;;5075073;28;20261;-62
2022/12/28 05:49:10;;;;;;;6.70;2.97;;;;;;;;;;5074056;28;20261;-63
2022/12/28 05:51:36;;;;;;;4.77;2.87;;;;;;;;;;5074456;28;20246;-63
2022/12/28 05:54:03;;;;;;;3.40;2.80;;;;;;;;;;5074322;28;20315;-62
2022/12/28 05:56:31;;;;;;;4.43;3.27;;;;;;;;;;5069877;28;20281;-62
2022/12/28 05:58:59;;;;;;;3.60;2.63;;;;;;;;;;5069199;28;20258;-62
2022/12/28 06:01:27;;;;;;;4.57;3.33;;;;;;;;;;5069014;28;20257;-62
2022/12/28 06:03:55;;;;;;;2.30;1.67;;;;;;;;;;5068771;28;20261;-62
2022/12/28 06:06:22;;;;;;;4.20;2.30;;;;;;;;;;5071941;28;20677;-62
2022/12/28 06:08:49;;;;;;;2.40;1.80;;;;;;;;;;5073900;28;20304;-62
2022/12/28 06:11:17;;;;;;;2.80;2.43;;;;;;;;;;5073965;28;20323;-62
2022/12/28 06:13:44;;;;;;;4.70;2.57;;;;;;;;;;5073854;28;20644;-62
2022/12/28 06:16:15;;;;;;;2.67;1.80;;;;;;;;;;5074029;28;20272;-62
2022/12/28 06:18:42;;;;;;;4.30;2.33;;;;;;;;;;5068885;28;20254;-62
2022/12/28 06:21:25;;;;;;;3.10;2.53;;;;;;;;;;5068820;28;20722;-62
2022/12/28 06:23:53;;;;;;;4.27;2.70;;;;;;;;;;5068833;28;20258;-63
2022/12/28 06:26:21;;;;;;;2.33;1.77;;;;;;;;;;5068727;28;20329;-62
2022/12/28 06:28:48;;;;;;;20.63;2.43;;;;;;;;;;5072902;28;20264;-65
2022/12/28 06:31:18;;;;;;;2.13;1.60;;;;;;;;;;5073625;28;20257;-62
2022/12/28 06:33:45;;;;;;;3.97;2.40;;;;;;;;;;5073270;28;20787;-62
2022/12/28 06:36:15;;;;;;;1.60;1.13;;;;;;;;;;5073595;28;20608;-62
2022/12/28 06:38:41;;;;;;;1.07;0.90;;;;;;;;;;5073294;28;20354;-62
2022/12/28 06:41:09;;;;;;;2.87;1.70;;;;;;;;;;5068607;28;20736;-62
2022/12/28 06:43:36;;;;;;;1.70;1.50;;;;;;;;;;5068301;28;20276;-64
2022/12/28 06:46:03;;;;;;;2.83;1.93;;;;;;;;;;5068267;28;20281;-62
2022/12/28 06:48:30;;;;;;;3.40;2.33;;;;;;;;;;5068352;28;20261;-62
2022/12/28 06:51:05;;;;;;;12.33;2.47;;;;;;;;;;5072282;28;20263;-62
2022/12/28 06:53:33;;;;;;;4.07;2.25;;;;;;;;;;5073201;28;20623;-62
2022/12/28 06:56:01;;;;;;;1.63;1.10;;;;;;;;;;5073132;28;20115;-62
2022/12/28 06:58:28;;;;;;;2.37;1.60;;;;;;;;;;5072719;28;20763;-62
2022/12/28 07:00:55;;;;;;;2.47;1.10;;;;;;;;;;5073156;28;20257;-62
2022/12/28 07:03:23;;;;;;;11.63;2.50;;;;;;;;;;5067979;28;20270;-62
2022/12/28 07:05:50;;;;;;;1.70;1.47;;;;;;;;;;5067906;28;20311;-62
2022/12/28 07:08:18;;;;;;;2.27;1.40;;;;;;;;;;5067660;28;20273;-62
2022/12/28 07:10:45;;;;;;;2.73;1.40;;;;;;;;;;5067914;28;20253;-62
2022/12/28 07:13:12;;;;;;;1.77;1.30;;;;;;;;;;5071792;28;20364;-62
2022/12/28 07:15:38;;;;;;;1.07;0.73;;;;;;;;;;5072936;28;20261;-62
2022/12/28 07:18:05;;;;;;;6.70;1.90;;;;;;;;;;5072499;28;20261;-62
2022/12/28 07:20:32;;;;;;;1.33;1.07;;;;;;;;;;5072836;28;20290;-62
2022/12/28 07:22:59;;;;;;;2.40;1.60;;;;;;;;;;5072658;28;20748;-62
2022/12/28 07:25:25;;;;;;;4.97;1.63;;;;;;;;;;5067722;28;20249;-62
2022/12/28 07:27:52;;;;;;;1.60;1.20;;;;;;;;;;5067690;28;20262;-65
2022/12/28 07:30:19;;;;;;;2.13;1.63;;;;;;;;;;5067571;28;20739;-62
2022/12/28 07:32:45;;;;;;;1.10;0.93;;;;;;;;;;5067571;28;20319;-62
2022/12/28 07:35:12;;;;;;;1.13;1.03;;;;;;;;;;5071546;28;20261;-62
2022/12/28 07:37:39;;;;;;;1.97;1.33;;;;;;;;;;5072283;28;20261;-62
2022/12/28 07:40:06;;;;;;;2.40;1.50;;;;;;;;;;5072486;28;20257;-62
2022/12/28 07:42:32;;;;;;;1.17;0.97;;;;;;;;;;5072350;28;20253;-62
2022/12/28 07:44:59;;;;;;;2.57;1.70;;;;;;;;;;5071894;28;20281;-62
2022/12/28 07:47:26;;;;;;;2.07;1.67;;;;;;;;;;5067905;28;20682;-62
2022/12/28 07:49:52;;;;;;;1.40;1.10;;;;;;;;;;5067474;28;20253;-62
2022/12/28 07:52:19;;;;;;;1.20;0.87;;;;;;;;;;5067300;28;20289;-62
2022/12/28 07:54:45;;;;;;;1.10;1.00;;;;;;;;;;5067422;28;20253;-62
2022/12/28 07:57:12;;;;;;;1.97;0.90;;;;;;;;;;5071135;28;20328;-62
2022/12/28 07:59:39;;;;;;;0.80;0.80;;;;;;;;;;5071782;28;20283;-62
2022/12/28 08:02:06;;;;;;;1.57;1.43;;;;;;;;;;5072363;28;20245;-62
2022/12/28 08:04:33;;;;;;;1.63;1.37;;;;;;;;;;5072247;28;20615;-62
2022/12/28 08:06:59;;;;;;;1.00;0.90;;;;;;;;;;5072333;28;20253;-62
2022/12/28 08:09:26;;;;;;;1.03;0.70;;;;;;;;;;5068138;28;20261;-62
2022/12/28 08:11:53;;;;;;;2.23;1.30;;;;;;;;;;5067030;28;20831;-63
2022/12/28 08:14:19;;;;;;;2.40;1.97;;;;;;;;;;5066780;28;20260;-65
2022/12/28 08:16:46;;;;;;;2.43;1.37;;;;;;;;;;5066688;28;20294;-62
2022/12/28 08:19:13;;;;;;;1.23;0.83;;;;;;;;;;5070661;28;20257;-62
2022/12/28 08:21:41;;;;;;;1.80;1.17;;;;;;;;;;5072099;28;20261;-62
2022/12/28 08:24:08;;;;;;;2.00;1.03;;;;;;;;;;5072028;28;20254;-62
2022/12/28 08:26:36;;;;;;;1.33;1.20;;;;;;;;;;5072153;28;20284;-62
2022/12/28 08:29:04;;;;;;;2.77;1.57;;;;;;;;;;5073419;28;20288;-64
2022/12/28 08:31:37;;;;;;;1.20;1.10;;;;;;;;;;5072053;28;20249;-62
2022/12/28 08:34:05;;;;;;;1.03;0.83;;;;;;;;;;5070623;28;20340;-62
2022/12/28 08:36:32;;;;;;;1.17;1.00;;;;;;;;;;5070843;28;20250;-62
2022/12/28 08:38:59;;;;;;;0.77;0.60;;;;;;;;;;5070747;28;20770;-62
2022/12/28 08:41:27;;;;;;;1.40;1.10;;;;;;;;;;5074126;28;20360;-62
2022/12/28 08:43:54;;;;;;;2.83;1.60;;;;;;;;;;5075363;28;20288;-62
2022/12/28 08:46:22;;;;;;;1.60;1.40;;;;;;;;;;5075652;28;20276;-62
2022/12/28 08:48:49;;;;;;;2.50;1.63;;;;;;;;;;5075765;28;20257;-62
2022/12/28 08:51:20;;;;;;;2.80;1.77;;;;;;;;;;5075474;28;20326;-62
2022/12/28 08:53:47;;;;;;;1.23;1.03;;;;;;;;;;5071189;28;20292;-62
2022/12/28 08:56:16;;;;;;;2.20;1.23;;;;;;;;;;5070527;28;20293;-63
2022/12/28 08:58:43;;;;;;;0.73;0.67;;;;;;;;;;5070297;28;20254;-62
2022/12/28 09:01:11;;;;;;;1.63;1.20;;;;;;;;;;5070289;28;20268;-62
2022/12/28 09:03:39;;;;;;;1.00;0.80;;;;;;;;;;5073949;28;20319;-62
2022/12/28 09:06:07;;;;;;;0.90;0.77;;;;;;;;;;5075362;28;20265;-62
2022/12/28 09:08:34;;;;;;;1.00;0.87;;;;;;;;;;5074949;28;20332;-61
2022/12/28 09:11:01;;;;;;;1.87;0.83;;;;;;;;;;5074847;28;20269;-65
2022/12/28 09:13:28;;;;;;;1.90;1.53;;;;;;;;;;5075012;28;20289;-62
2022/12/28 09:16:05;;;;;;;1.47;1.13;;;;;;;;;;5070715;28;20280;-62
2022/12/28 09:18:32;;;;;;;1.10;1.00;;;;;;;;;;5070072;28;20315;-62
2022/12/28 09:21:09;;;;;;;1.00;0.90;;;;;;;;;;5070008;28;20358;-62
2022/12/28 09:23:35;;;;;;;0.70;0.60;;;;;;;;;;5069240;28;20365;-62
2022/12/28 09:26:11;;;;;;;2.33;1.33;;;;;;;;;;5073917;28;20258;-61
2022/12/28 09:28:38;;;;;;;2.03;1.35;;;;;;;;;;5075009;28;20256;-62
2022/12/28 09:31:06;;;;;;;1.00;0.90;;;;;;;;;;5074976;28;20035;-61
2022/12/28 09:36:18;;;;;;;1.63;1.23;;;;;;;;;;5074006;28;20334;-62
2022/12/28 09:38:46;;;;;;;1.50;1.00;;;;;;;;;;5069585;28;20408;-62
2022/12/28 09:41:32;;;;;;;1.57;1.17;;;;;;;;;;5069363;28;20336;-62
2022/12/28 09:43:59;;;;;;;3.10;2.03;;;;;;;;;;5069255;28;20254;-62
2022/12/28 09:46:26;;;;;;;1.00;0.90;;;;;;;;;;5069475;28;20272;-62
2022/12/28 09:48:55;;;;;;;1.23;1.07;;;;;;;;;;5074600;28;20344;-62
2022/12/28 09:51:24;;;;;;;1.27;1.10;;;;;;;;;;5074446;28;20272;-62
2022/12/28 09:53:51;;;;;;;1.93;0.90;;;;;;;;;;5074323;28;20335;-62
2022/12/28 09:56:28;;;;;;;0.97;0.80;;;;;;;;;;5074399;28;20289;-62
2022/12/28 09:58:55;;;;;;;1.23;1.10;;;;;;;;;;5073030;28;20249;-62
2022/12/28 10:01:23;;;;;;;2.40;1.30;;;;;;;;;;5069206;28;20265;-62
2022/12/28 10:03:49;;;;;;;2.53;1.07;;;;;;;;;;5069230;28;20253;-62
2022/12/28 10:06:27;;;;;;;2.00;0.93;;;;;;;;;;5069070;28;20269;-62
2022/12/28 10:08:56;;;;;;;0.50;0.50;;;;;;;;;;5069826;28;20792;-62
2022/12/28 10:11:24;;;;;;;0.60;0.43;;;;;;;;;;5074129;28;20261;-62
2022/12/28 10:13:55;;;;;;;2.90;1.87;;;;;;;;;;5074120;28;20285;-61
2022/12/28 10:16:22;;;;;;;1.20;0.97;;;;;;;;;;5073690;28;20589;-62
2022/12/28 10:18:49;;;;;;;3.00;1.10;;;;;;;;;;5073856;28;20612;-62
2022/12/28 10:21:18;;;;;;;1.07;0.97;;;;;;;;;;5072079;28;20289;-62
2022/12/28 10:23:46;;;;;;;3.63;2.10;;;;;;;;;;5068723;28;20311;-62
2022/12/28 10:26:17;;;;;;;1.17;1.07;;;;;;;;;;5068661;28;20894;-62
2022/12/28 10:28:53;;;;;;;1.10;0.80;;;;;;;;;;5068537;28;20332;-62
2022/12/28 10:31:34;;;;;;;1.40;0.93;;;;;;;;;;5070346;28;20258;-62
2022/12/28 10:34:00;;;;;;;0.53;0.53;;;;;;;;;;5073518;28;20317;-62
2022/12/28 10:36:32;;;;;;;0.60;0.60;;;;;;;;;;5073311;28;20616;-62
2022/12/28 10:38:58;;;;;;;1.40;1.20;;;;;;;;;;5074004;28;20739;-62
2022/12/28 10:41:32;;;;;;;1.63;1.00;;;;;;;;;;5073447;28;20257;-62
2022/12/28 10:43:59;;;;;;;2.47;1.30;;;;;;;;;;5070187;28;20281;-62
2022/12/28 10:46:26;;;;;;;2.13;1.80;;;;;;;;;;5068332;28;20272;-62
2022/12/28 10:48:54;;;;;;;0.83;0.83;;;;;;;;;;5068368;28;20751;-61
2022/12/28 10:51:24;;;;;;;1.77;1.13;;;;;;;;;;5067920;28;20284;-62
2022/12/28 10:53:53;;;;;;;0.90;0.90;;;;;;;;;;5070418;28;20323;-61
2022/12/28 10:56:27;;;;;;;1.33;1.03;;;;;;;;;;5073177;28;20276;-61
2022/12/28 10:58:56;;;;;;;0.63;0.63;;;;;;;;;;5073116;28;20245;-62
2022/12/28 11:01:27;;;;;;;3.80;1.23;;;;;;;;;;5073312;28;20253;-62
2022/12/28 11:03:59;;;;;;;0.60;0.60;;;;;;;;;;5073032;28;20248;-62
2022/12/28 11:06:27;;;;;;;0.53;0.53;;;;;;;;;;5068946;28;20334;-62
2022/12/28 11:09:01;;;;;;;1.17;0.83;;;;;;;;;;5068094;28;20250;-64
2022/12/28 11:11:28;;;;;;;0.98;0.90;;;;;;;;;;5067930;28;20356;-62
2022/12/28 11:14:10;;;;;;;1.20;0.67;;;;;;;;;;5067760;28;20059;-61
2022/12/28 11:16:37;;;;;;;1.07;0.97;;;;;;;;;;5071801;28;20292;-62
2022/12/28 11:19:04;;;;;;;1.10;1.03;;;;;;;;;;5072994;28;20264;-61
2022/12/28 11:21:31;;;;;;;1.40;1.30;;;;;;;;;;5072478;28;20253;-62
2022/12/28 11:23:58;;;;;;;7.00;2.07;;;;;;;;;;5072653;28;20336;-62
2022/12/28 11:26:26;;;;;;;1.10;1.03;;;;;;;;;;5072859;28;20299;-61
2022/12/28 11:28:53;;;;;;;5.43;1.20;;;;;;;;;;5068335;28;20258;-61
2022/12/28 11:31:26;;;;;;;1.23;1.13;;;;;;;;;;5067648;28;20280;-62
2022/12/28 11:33:54;;;;;;;1.57;0.80;;;;;;;;;;5067214;28;20277;-62
2022/12/28 11:36:23;;;;;;;1.03;0.93;;;;;;;;;;5067132;28;20270;-61
2022/12/28 11:38:51;;;;;;;2.97;1.20;;;;;;;;;;5071503;28;20767;-62
2022/12/28 11:41:23;;;;;;;1.30;0.90;;;;;;;;;;5072409;28;20600;-61
2022/12/28 11:43:59;;;;;;;1.30;1.20;;;;;;;;;;5072528;28;20261;-62
2022/12/28 11:46:25;;;;;;;;;;;;;;;;;;5072670;28;20643;-62
2022/12/28 11:48:55;;;;;;;1.70;1.37;;;;;;;;;;5072524;28;20473;-62
2022/12/28 11:51:22;;;;;;;1.60;1.50;;;;;;;;;;5067341;28;20348;-62
2022/12/28 11:53:50;;;;;;;1.27;1.03;;;;;;;;;;5067147;28;20780;-62
2022/12/28 11:56:21;;;;;;;2.90;1.13;;;;;;;;;;5067338;28;20616;-62
2022/12/28 11:59:02;;;;;;;2.20;1.80;;;;;;;;;;5066705;28;20257;-62
2022/12/28 12:01:29;;;;;;;1.87;1.40;;;;;;;;;;5072531;28;20296;-62
2022/12/28 12:03:58;;;;;;;1.07;0.83;;;;;;;;;;5073748;28;20272;-62
2022/12/28 12:06:43;;;;;;;1.73;1.20;;;;;;;;;;5076072;28;20254;-62
2022/12/28 12:09:29;;;;;;;1.55;1.40;;;;;;;;;;5076415;28;20767;-61
2022/12/28 12:11:55;;;;;;;;;;;;;;;;;;5074973;28;20032;-62
2022/12/28 12:14:35;;;;;;;3.43;1.20;;;;;;;;;;5071053;28;19999;-62
2022/12/28 12:17:03;;;;;;;5.07;1.60;;;;;;;;;;5071216;28;20261;-62
2022/12/28 12:19:32;;;;;;;2.10;1.30;;;;;;;;;;5071471;28;20253;-61
2022/12/28 12:22:01;;;;;;;0.93;0.63;;;;;;;;;;5072896;28;20261;-62
2022/12/28 12:24:41;;;;;;;2.10;0.83;;;;;;;;;;5076340;28;20344;-61
2022/12/28 12:27:35;;;;;;;1.63;1.23;;;;;;;;;;5075577;28;20314;-61
2022/12/28 12:30:04;;;;;;;0.93;0.90;;;;;;;;;;5075132;28;20258;-61
2022/12/28 12:32:38;;;;;;;0.63;0.63;;;;;;;;;;5075704;28;20317;-62
2022/12/28 12:35:06;;;;;;;0.57;0.57;;;;;;;;;;5070955;28;20268;-62
2022/12/28 12:37:48;;;;;;;1.17;0.77;;;;;;;;;;5070684;28;20273;-61
2022/12/28 12:40:24;;;;;;;2.13;1.60;;;;;;;;;;5070759;28;20280;-62
2022/12/28 12:43:09;;;;;;;0.87;0.83;;;;;;;;;;5070463;28;20257;-64
2022/12/28 12:45:49;;;;;;;2.20;1.75;;;;;;;;;;5075714;28;20581;-61
2022/12/28 12:48:22;;;;;;;0.60;0.60;;;;;;;;;;5075419;28;20348;-62
2022/12/28 12:51:07;;;;;;;1.50;1.23;;;;;;;;;;5075186;28;20249;-62
2022/12/28 12:53:51;;;;;;;0.93;0.75;;;;;;;;;;5075520;28;20292;-61
2022/12/28 12:56:27;;;;;;;1.27;1.10;;;;;;;;;;5073140;28;20031;-62
2022/12/28 12:58:57;;;;;;;2.10;0.80;;;;;;;;;;5070390;28;20293;-62
2022/12/28 13:01:50;;;;;;;0.63;0.63;;;;;;;;;;5069721;28;20763;-62
2022/12/28 13:04:26;;;;;;;2.93;1.20;;;;;;;;;;5061689;28;20433;-62
2022/12/28 13:06:55;;;;;;;1.40;1.20;;;;;;;;;;5073502;28;20273;-62
2022/12/28 13:09:24;;;;;;;1.00;0.90;;;;;;;;;;5075453;28;20654;-62
2022/12/28 13:11:51;;;;;;;0.53;0.53;;;;;;;;;;5075493;28;20627;-62
2022/12/28 13:14:19;;;;;;;1.23;1.00;;;;;;;;;;5074473;28;20745;-62
2022/12/28 13:16:53;;;;;;;0.50;0.50;;;;;;;;;;5074914;28;20787;-64
2022/12/28 13:19:22;;;;;;;1.80;1.40;;;;;;;;;;5071145;28;20778;-62
2022/12/28 13:21:49;;;;;;;1.10;0.97;;;;;;;;;;5069508;28;20325;-61
2022/12/28 13:24:24;;;;;;;5.53;1.40;;;;;;;;;;5070053;28;20253;-61
2022/12/28 13:26:51;;;;;;;0.65;0.65;;;;;;;;;;5070113;28;20254;-63
2022/12/28 13:29:22;;;;;;;1.20;1.07;;;;;;;;;;5072911;28;20021;-62
2022/12/28 13:31:50;;;;;;;1.83;1.20;;;;;;;;;;5074560;28;20416;-61
2022/12/28 13:34:24;;;;;;;1.07;0.77;;;;;;;;;;5074755;28;20817;-61
2022/12/28 13:36:58;;;;;;;1.50;1.25;;;;;;;;;;5074804;28;20289;-61
2022/12/28 13:39:32;;;;;;;0.90;0.80;;;;;;;;;;5074271;28;20025;-64
2022/12/28 13:42:00;;;;;;;8.40;2.17;;;;;;;;;;5068920;28;20744;-61
2022/12/28 13:44:36;;;;;;;3.23;2.03;;;;;;;;;;5069177;28;20292;-61
2022/12/28 13:47:06;;;;;;;2.10;1.80;;;;;;;;;;5069166;28;20285;-61
2022/12/28 13:49:35;;;;;;;2.30;1.47;;;;;;;;;;5069206;28;20257;-61
2022/12/28 13:52:05;;;;;;;1.97;1.73;;;;;;;;;;5074041;28;20261;-61
2022/12/28 13:54:32;;;;;;;2.27;2.03;;;;;;;;;;5074397;28;20431;-62
2022/12/28 13:56:59;;;;;;;9.57;3.40;;;;;;;;;;5073893;28;20604;-61
2022/12/28 13:59:25;;;;;;;4.87;4.37;;;;;;;;;;5073651;28;20253;-62
2022/12/28 14:01:52;;;;;;;5.53;3.50;;;;;;;;;;5073534;28;20770;-62
2022/12/28 14:04:22;;;;;;;3.20;2.63;;;;;;;;;;5067889;28;20249;-64
2022/12/28 14:06:49;;;;;;;2.57;2.13;;;;;;;;;;5068616;28;20277;-62
2022/12/28 14:09:16;;;;;;;4.10;2.67;;;;;;;;;;5068842;28;20265;-62
2022/12/28 14:11:43;;;;;;;5.13;3.13;;;;;;;;;;5068489;28;20265;-62
2022/12/28 14:14:10;;;;;;;4.33;2.40;;;;;;;;;;5073583;28;20291;-62
2022/12/28 14:16:38;;;;;;;2.90;2.23;;;;;;;;;;5073971;28;20288;-62
2022/12/28 14:19:05;;;;;;;4.00;2.80;;;;;;;;;;5073384;28;20260;-61
2022/12/28 14:21:58;;;;;;;4.33;2.70;;;;;;;;;;5073830;28;20814;-62
2022/12/28 14:24:25;;;;;;;1.70;1.47;;;;;;;;;;5070886;28;20258;-62
2022/12/28 14:26:56;;;;;;;1.87;1.23;;;;;;;;;;5067218;28;20261;-62
2022/12/28 14:29:35;;;;;;;4.87;2.60;;;;;;;;;;5068080;28;20356;-61
2022/12/28 14:32:06;;;;;;;4.63;2.17;;;;;;;;;;5068375;28;20311;-62
2022/12/28 14:34:39;;;;;;;3.53;1.63;;;;;;;;;;5070143;28;20336;-64
2022/12/28 14:37:08;;;;;;;3.17;2.20;;;;;;;;;;5073044;28;20253;-65
2022/12/28 14:39:36;;;;;;;3.07;1.90;;;;;;;;;;5073430;28;20261;-64
2022/12/28 14:42:16;;;;;;;3.63;2.23;;;;;;;;;;5073393;28;20266;-63
2022/12/28 14:44:43;;;;;;;4.57;2.57;;;;;;;;;;5073380;28;20483;-63
2022/12/28 14:47:28;;;;;;;2.73;2.27;;;;;;;;;;5070223;28;20115;-62
2022/12/28 14:49:58;;;;;;;6.85;3.00;;;;;;;;;;5068100;28;20564;-62
2022/12/28 14:52:24;;;;;;;4.70;3.37;;;;;;;;;;5067765;28;20384;-62
2022/12/28 14:54:52;;;;;;;6.07;3.73;;;;;;;;;;5067921;28;20356;-62
2022/12/28 14:57:18;;;;;;;5.47;3.83;;;;;;;;;;5070619;28;20034;-62
2022/12/28 14:59:47;;;;;;;8.70;4.20;;;;;;;;;;5072620;28;20025;-62
2022/12/28 15:02:39;;;;;;;5.83;4.13;;;;;;;;;;5073193;28;20459;-62
2022/12/28 15:05:26;;;;;;;13.37;4.07;;;;;;;;;;5072745;28;20033;-62
2022/12/28 15:07:52;;;;;;;8.13;3.37;;;;;;;;;;5072945;28;20051;-62
2022/12/28 15:10:19;;;;;;;4.80;2.10;;;;;;;;;;5067538;28;20048;-62
2022/12/28 15:12:46;;;;;;;6.57;4.30;;;;;;;;;;5067789;28;20028;-62
2022/12/28 15:15:12;;;;;;;6.60;4.47;;;;;;;;;;5067536;28;20043;-62
2022/12/28 15:17:41;;;;;;;8.13;4.00;;;;;;;;;;5067382;28;20574;-62
2022/12/28 15:20:08;;;;;;;10.03;6.07;;;;;;;;;;5071479;28;20048;-62
2022/12/28 15:22:35;;;;;;;12.67;4.47;;;;;;;;;;5072726;28;20016;-62
2022/12/28 15:25:01;;;;;;;11.73;5.17;;;;;;;;;;5072676;28;20074;-62
2022/12/28 15:27:28;;;;;;;7.40;4.10;;;;;;;;;;5072203;28;20099;-62